createdAt,value
2019-01-24T05:00:28.797Z,0
2019-01-24T05:03:56.795Z,0
2019-01-24T05:07:24.698Z,0
2019-01-24T05:10:52.588Z,0
2019-01-24T05:14:20.476Z,0
2019-01-24T05:17:48.385Z,0
2019-01-24T05:21:16.299Z,0
2019-01-24T05:24:44.182Z,0
2019-01-24T05:28:12.088Z,0
2019-01-24T05:31:39.980Z,0
2019-01-24T05:35:08.010Z,0
2019-01-24T05:38:36.936Z,0
2019-01-24T05:42:05.948Z,0
2019-01-24T05:45:33.867Z,0
2019-01-24T05:49:01.745Z,0
2019-01-24T05:52:29.661Z,0
2019-01-24T05:55:57.803Z,0
2019-01-24T05:59:25.704Z,0
2019-01-24T06:02:53.606Z,0
2019-01-24T06:06:21.505Z,0
2019-01-24T06:09:49.396Z,0
2019-01-24T06:13:17.294Z,0
2019-01-24T06:16:45.186Z,0
2019-01-24T06:20:13.619Z,0
2019-01-24T06:23:41.522Z,0
2019-01-24T06:27:09.419Z,0
2019-01-24T06:30:37.300Z,0
2019-01-24T06:34:05.211Z,0
2019-01-24T06:37:33.111Z,0
2019-01-24T06:41:00.990Z,0
2019-01-24T06:44:28.892Z,0
2019-01-24T06:47:56.802Z,0
2019-01-24T06:51:24.685Z,0
2019-01-24T06:54:52.596Z,0
2019-01-24T06:58:20.498Z,0
2019-01-24T07:01:48.381Z,0
2019-01-24T07:05:16.285Z,5.625
2019-01-24T07:08:44.187Z,5.625
2019-01-24T07:12:12.084Z,5.625
2019-01-24T07:15:39.958Z,11.25
2019-01-24T07:19:07.858Z,11.25
2019-01-24T07:22:35.761Z,16.875
2019-01-24T07:26:03.645Z,16.875
2019-01-24T07:29:31.546Z,16.875
2019-01-24T07:33:00.436Z,22.5
2019-01-24T07:36:28.356Z,28.125
2019-01-24T07:39:56.259Z,28.125
2019-01-24T07:43:24.168Z,33.75
2019-01-24T07:46:52.064Z,33.75
2019-01-24T07:50:20.952Z,39.375
2019-01-24T07:53:48.848Z,45
2019-01-24T07:57:16.954Z,50.625
2019-01-24T08:00:45.843Z,56.25
2019-01-24T08:04:13.754Z,56.25
2019-01-24T08:07:41.703Z,61.875
2019-01-24T08:11:09.590Z,67.5
2019-01-24T08:14:37.498Z,67.5
2019-01-24T08:18:05.401Z,73.125
2019-01-24T08:21:33.302Z,78.75
2019-01-24T08:25:01.221Z,78.75
2019-01-24T08:28:29.146Z,84.375
2019-01-24T08:31:57.036Z,90
2019-01-24T08:35:24.944Z,95.625
2019-01-24T08:38:52.846Z,106.875
2019-01-24T08:42:20.737Z,106.875
2019-01-24T08:45:48.652Z,118.125
2019-01-24T08:49:16.562Z,129.375
2019-01-24T08:52:44.448Z,123.75
2019-01-24T08:56:12.350Z,112.5
2019-01-24T08:59:40.267Z,123.75
2019-01-24T09:03:08.170Z,123.75
2019-01-24T09:06:36.068Z,135
2019-01-24T09:10:03.971Z,118.125
2019-01-24T09:13:31.885Z,118.125
2019-01-24T09:16:59.772Z,135
2019-01-24T09:20:28.671Z,140.625
2019-01-24T09:23:56.575Z,140.625
2019-01-24T09:27:24.466Z,151.875
2019-01-24T09:30:52.378Z,157.5
2019-01-24T09:34:20.285Z,157.5
2019-01-24T09:37:48.175Z,168.75
2019-01-24T09:41:16.084Z,157.5
2019-01-24T09:44:43.987Z,151.875
2019-01-24T09:48:11.880Z,163.125
2019-01-24T09:51:40.763Z,163.125
2019-01-24T09:55:08.665Z,151.875
2019-01-24T09:58:37.537Z,174.375
2019-01-24T10:02:05.434Z,191.25
2019-01-24T10:05:34.327Z,196.875
2019-01-24T10:09:02.304Z,196.875
2019-01-24T10:12:31.176Z,196.875
2019-01-24T10:15:59.075Z,185.625
2019-01-24T10:19:27.972Z,202.5
2019-01-24T10:22:56.860Z,208.125
2019-01-24T10:26:25.742Z,225
2019-01-24T10:29:53.635Z,225
2019-01-24T10:33:21.506Z,219.375
2019-01-24T10:36:49.390Z,230.625
2019-01-24T10:40:17.286Z,253.125
2019-01-24T10:43:45.157Z,241.875
2019-01-24T10:47:13.040Z,264.375
2019-01-24T10:50:40.931Z,258.75
2019-01-24T10:54:08.799Z,275.625
2019-01-24T10:57:36.687Z,281.25
2019-01-24T11:01:04.575Z,275.625
2019-01-24T11:04:32.455Z,298.125
2019-01-24T11:08:00.344Z,320.625
2019-01-24T11:11:28.444Z,309.375
2019-01-24T11:14:56.317Z,343.125
2019-01-24T11:18:24.207Z,388.125
2019-01-24T11:21:53.092Z,393.75
2019-01-24T11:25:20.970Z,399.375
2019-01-24T11:28:48.869Z,388.125
2019-01-24T11:32:16.762Z,438.75
2019-01-24T11:35:44.648Z,478.125
2019-01-24T11:39:12.519Z,1333.125
2019-01-24T11:42:40.407Z,573.75
2019-01-24T11:46:09.291Z,1141.875
2019-01-24T11:49:37.166Z,1513.125
2019-01-24T11:53:05.056Z,1113.75
2019-01-24T11:56:34.921Z,1456.875
2019-01-24T12:00:02.796Z,1445.625
2019-01-24T12:03:30.678Z,1676.25
2019-01-24T12:07:04.039Z,1648.125
2019-01-24T12:10:29.409Z,1580.625
2019-01-24T12:13:57.328Z,1428.75
2019-01-24T12:17:25.208Z,1271.25
2019-01-24T12:20:53.127Z,1136.25
2019-01-24T12:24:20.997Z,1760.625
2019-01-24T12:27:48.889Z,1603.125
2019-01-24T12:31:16.761Z,1575
2019-01-24T12:34:44.659Z,1665
2019-01-24T12:38:12.563Z,1721.25
2019-01-24T12:41:40.498Z,1676.25
2019-01-24T12:45:08.379Z,1726.875
2019-01-24T12:48:36.272Z,1743.75
2019-01-24T12:52:05.149Z,1293.75
2019-01-24T12:55:33.033Z,1440
2019-01-24T12:59:00.929Z,1614.375
2019-01-24T13:02:28.815Z,1681.875
2019-01-24T13:05:56.683Z,1558.125
2019-01-24T13:09:24.569Z,1575
2019-01-24T13:12:52.458Z,1681.875
2019-01-24T13:16:20.331Z,1591.875
2019-01-24T13:19:48.216Z,1434.375
2019-01-24T13:23:16.118Z,1350
2019-01-24T13:26:43.988Z,461.25
2019-01-24T13:30:11.887Z,1220.625
2019-01-24T13:33:40.758Z,1125
2019-01-24T13:37:08.637Z,686.25
2019-01-24T13:40:37.521Z,1012.5
2019-01-24T13:44:05.414Z,770.625
2019-01-24T13:47:34.275Z,320.625
2019-01-24T13:51:02.270Z,230.625
2019-01-24T13:54:30.157Z,225
2019-01-24T13:57:59.396Z,225
2019-01-24T14:01:27.293Z,196.875
2019-01-24T14:04:55.181Z,191.25
2019-01-24T14:08:23.075Z,180
2019-01-24T14:11:50.946Z,180
2019-01-24T14:15:18.832Z,157.5
2019-01-24T14:18:47.711Z,135
2019-01-24T14:22:15.584Z,95.625
2019-01-24T14:25:43.490Z,73.125
2019-01-24T14:29:12.368Z,56.25
2019-01-24T14:32:40.369Z,56.25
2019-01-24T14:36:08.251Z,45
2019-01-24T14:39:36.141Z,45
2019-01-24T14:43:04.049Z,39.375
2019-01-24T14:46:31.923Z,39.375
2019-01-24T14:49:59.810Z,28.125
2019-01-24T14:53:27.713Z,22.5
2019-01-24T14:56:55.577Z,22.5
2019-01-24T15:00:24.456Z,22.5
2019-01-24T15:03:52.342Z,28.125
2019-01-24T15:07:20.266Z,22.5
2019-01-24T15:10:48.178Z,16.875
2019-01-24T15:14:17.058Z,16.875
2019-01-24T15:17:44.923Z,11.25
2019-01-24T15:21:12.811Z,11.25
2019-01-24T15:24:40.728Z,11.25
2019-01-24T15:28:08.614Z,5.625
2019-01-24T15:31:36.504Z,5.625
2019-01-24T15:35:04.399Z,5.625
2019-01-24T15:38:32.290Z,5.625
2019-01-24T15:42:01.135Z,0
2019-01-24T15:45:29.809Z,0
2019-01-24T15:48:57.715Z,0
2019-01-24T15:52:25.589Z,0
2019-01-24T15:55:55.479Z,0
2019-01-24T15:59:23.387Z,0
2019-01-24T16:02:51.258Z,0
2019-01-24T16:06:19.157Z,0
2019-01-24T16:09:47.039Z,0
2019-01-24T16:13:14.926Z,0
2019-01-24T16:16:42.813Z,0
2019-01-24T16:20:10.707Z,0
2019-01-24T16:23:38.579Z,0
2019-01-24T16:27:07.460Z,0
2019-01-24T16:30:36.349Z,0
2019-01-24T16:34:04.237Z,0
2019-01-24T16:37:32.126Z,0
2019-01-24T16:41:01.026Z,0
2019-01-24T16:44:29.889Z,0
2019-01-24T16:47:57.783Z,0
2019-01-24T16:51:25.691Z,0
2019-01-24T16:54:53.586Z,0
2019-01-24T16:58:21.490Z,0
2019-01-24T17:01:50.388Z,0
2019-01-24T17:05:18.292Z,0
2019-01-24T17:08:46.205Z,0
2019-01-24T17:12:14.112Z,0
2019-01-24T17:15:43.993Z,0
2019-01-24T17:19:12.858Z,0
2019-01-24T17:22:41.752Z,0
2019-01-24T17:26:09.631Z,0
2019-01-24T17:29:37.508Z,0
2019-01-24T17:33:05.399Z,0
2019-01-24T17:36:33.292Z,0
2019-01-24T17:40:01.162Z,0
2019-01-24T17:43:29.054Z,0
2019-01-24T17:46:56.986Z,0
2019-01-24T17:50:25.856Z,0
2019-01-24T17:53:53.785Z,0
2019-01-24T17:57:22.667Z,0
2019-01-24T18:00:50.538Z,0
2019-01-24T18:04:21.698Z,0
2019-01-24T18:07:49.311Z,0
2019-01-24T18:11:17.242Z,0
2019-01-24T18:14:45.123Z,0
2019-01-24T18:18:13.016Z,0
2019-01-24T18:21:40.934Z,0
2019-01-24T18:25:09.804Z,0
2019-01-24T18:28:37.703Z,0
2019-01-24T18:32:05.582Z,0
2019-01-24T18:35:33.504Z,0
2019-01-24T18:39:01.419Z,0
2019-01-24T18:42:29.300Z,0
2019-01-24T18:45:57.191Z,0
2019-01-24T18:49:25.094Z,0
2019-01-24T18:52:53.077Z,0
2019-01-24T18:56:20.956Z,0
2019-01-24T18:59:48.841Z,0
2019-01-24T19:03:16.749Z,0
2019-01-24T19:06:44.624Z,0
2019-01-24T19:10:12.518Z,0
2019-01-24T19:13:40.403Z,0
2019-01-24T19:17:09.281Z,0
2019-01-24T19:20:37.193Z,0
2019-01-24T19:24:06.119Z,0
2019-01-24T19:27:33.997Z,0
2019-01-24T19:31:02.875Z,0
2019-01-24T19:34:30.779Z,0
2019-01-24T19:37:58.661Z,0
2019-01-24T19:41:26.556Z,0
2019-01-24T19:44:54.441Z,0
2019-01-24T19:48:22.323Z,0
2019-01-24T19:51:50.223Z,0
2019-01-24T19:55:19.102Z,0
2019-01-24T19:58:47.005Z,0
2019-01-24T20:02:14.886Z,0
2019-01-24T20:05:42.776Z,0
2019-01-24T20:09:10.668Z,0
2019-01-24T20:12:38.685Z,0
2019-01-24T20:16:06.655Z,0
2019-01-24T20:19:34.571Z,0
2019-01-24T20:23:03.528Z,0
2019-01-24T20:26:31.491Z,0
2019-01-24T20:29:59.450Z,0
2019-01-24T20:33:28.564Z,0
2019-01-24T20:36:56.688Z,0
2019-01-24T20:40:24.884Z,0
2019-01-24T20:43:52.938Z,0
2019-01-24T20:47:20.937Z,0
2019-01-24T20:50:49.949Z,0
2019-01-24T20:54:17.833Z,0
2019-01-24T20:57:45.750Z,0
2019-01-24T21:01:13.649Z,0
2019-01-24T21:04:41.593Z,0
2019-01-24T21:08:09.487Z,0
2019-01-24T21:11:37.376Z,0
2019-01-24T21:15:05.248Z,0
2019-01-24T21:18:33.133Z,0
2019-01-24T21:22:01.028Z,0
2019-01-24T21:25:29.954Z,0
2019-01-24T21:28:57.810Z,0
2019-01-24T21:32:25.701Z,0
2019-01-24T21:35:53.594Z,0
2019-01-24T21:39:24.448Z,0
2019-01-24T21:42:52.336Z,0
2019-01-24T21:46:20.226Z,0
2019-01-24T21:49:48.106Z,0
2019-01-24T21:53:15.987Z,0
2019-01-24T21:56:44.867Z,0
2019-01-24T22:00:12.740Z,0
2019-01-24T22:03:40.644Z,0
2019-01-24T22:07:08.530Z,0
2019-01-24T22:10:36.407Z,0
2019-01-24T22:14:04.297Z,0
2019-01-24T22:17:32.177Z,0
2019-01-24T22:21:00.070Z,0
2019-01-24T22:24:27.962Z,0
2019-01-24T22:27:55.851Z,0
2019-01-24T22:31:24.737Z,0
2019-01-24T22:34:52.615Z,0
2019-01-24T22:38:20.504Z,0
2019-01-24T22:41:48.413Z,0
2019-01-24T22:45:16.273Z,0
2019-01-24T22:48:44.163Z,0
2019-01-24T22:52:12.064Z,0
2019-01-24T22:55:39.938Z,0
2019-01-24T22:59:07.993Z,0
